Time;durP1;ratioP1;P1;durP2;ratioP2;P2;SDS_P1;SDS_P2;PMS_P1;PMS_P2;Temp;Humidity;BMP_temperature;BMP_pressure;BME280_temperature;BME280_humidity;BME280_pressure;Samples;Min_cycle;Max_cycle;Signal;HPM_P1;HPM_P2
2022/05/26 00:00:16;;;;;;;3.15;1.92;;;26.90;52.90;;;;;;4116577;28;20179;-63
2022/05/26 00:02:18;;;;;;;4.18;2.05;;;27.10;52.50;;;;;;4095633;28;20853;-63
2022/05/26 00:04:20;;;;;;;2.58;2.00;;;27.40;52.40;;;;;;4117745;28;20056;-61
2022/05/26 00:06:24;;;;;;;2.55;1.55;;;27.60;51.90;;;;;;4118271;28;20175;-65
2022/05/26 00:08:27;;;;;;;4.85;2.10;;;27.80;51.40;;;;;;4112934;28;20077;-60
2022/05/26 00:10:29;;;;;;;2.85;2.00;;;28.00;51.10;;;;;;4112937;28;20489;-60
2022/05/26 00:12:32;;;;;;;2.77;1.73;;;28.20;50.70;;;;;;4119517;28;20069;-60
2022/05/26 00:14:34;;;;;;;2.28;1.60;;;28.40;50.60;;;;;;4114347;28;20717;-59
2022/05/26 00:16:38;;;;;;;2.40;1.40;;;28.60;50.20;;;;;;4111236;28;20539;-60
2022/05/26 00:18:42;;;;;;;2.20;1.60;;;28.70;49.90;;;;;;4115846;28;20991;-62
2022/05/26 00:20:44;;;;;;;2.72;1.70;;;28.90;49.70;;;;;;4120241;28;20053;-61
2022/05/26 00:22:46;;;;;;;2.15;1.58;;;29.10;49.50;;;;;;4111980;28;20054;-61
2022/05/26 00:24:48;;;;;;;2.90;1.60;;;29.30;49.30;;;;;;4112845;28;20152;-61
2022/05/26 00:26:50;;;;;;;2.67;1.80;;;29.40;49.00;;;;;;4117758;28;20136;-64
2022/05/26 00:28:53;;;;;;;2.78;1.85;;;29.50;48.50;;;;;;4112148;28;20818;-63
2022/05/26 00:30:55;;;;;;;2.90;1.60;;;29.60;48.90;;;;;;4111943;28;20053;-63
2022/05/26 00:32:57;;;;;;;3.40;1.67;;;29.70;48.00;;;;;;4118221;28;20796;-60
2022/05/26 00:34:59;;;;;;;2.50;1.90;;;29.70;48.20;;;;;;4115599;28;20278;-63
2022/05/26 00:37:05;;;;;;;2.63;1.65;;;29.40;48.70;;;;;;4111441;28;20533;-60
2022/05/26 00:39:19;;;;;;;3.85;1.58;;;28.90;49.40;;;;;;4112572;28;20068;-65
2022/05/26 00:41:21;;;;;;;3.05;1.92;;;28.40;50.20;;;;;;4112299;28;20118;-62
2022/05/26 00:43:23;;;;;;;2.53;1.67;;;27.90;50.70;;;;;;4120043;28;20057;-64
2022/05/26 00:45:33;;;;;;;3.10;1.50;;;27.60;51.50;;;;;;4115303;28;20186;-65
2022/05/26 00:47:44;;;;;;;4.78;1.48;;;27.20;52.00;;;;;;4112433;28;20163;-61
2022/05/26 00:49:58;;;;;;;3.55;1.60;;;26.90;52.50;;;;;;4112474;28;20452;-61
2022/05/26 00:52:00;;;;;;;2.97;1.42;;;26.70;53.00;;;;;;4111029;28;20546;-61
2022/05/26 00:54:12;;;;;;;1.43;1.10;;;26.40;53.30;;;;;;4112105;28;20506;-61
2022/05/26 00:56:32;;;;;;;3.35;1.50;;;26.20;53.60;;;;;;4112227;28;20200;-62
2022/05/26 00:58:38;;;;;;;3.03;1.50;;;26.10;54.10;;;;;;4110292;28;20764;-62
2022/05/26 01:00:40;;;;;;;2.05;1.38;;;25.90;54.40;;;;;;4112730;28;20057;-59
2022/05/26 01:03:03;;;;;;;1.93;1.00;;;25.80;54.60;;;;;;4130689;28;20044;-61
2022/05/26 01:05:14;;;;;;;1.73;1.17;;;25.60;54.90;;;;;;4112143;28;20056;-61
2022/05/26 01:07:37;;;;;;;2.35;1.70;;;25.40;55.10;;;;;;4111405;28;20049;-60
2022/05/26 01:09:39;;;;;;;1.92;1.27;;;25.40;55.60;;;;;;4115362;28;21064;-60
2022/05/26 01:11:43;;;;;;;1.88;1.10;;;25.20;55.60;;;;;;4112049;28;20160;-61
2022/05/26 01:13:52;;;;;;;1.77;1.13;;;25.20;56.00;;;;;;4113707;28;20595;-63
2022/05/26 01:16:08;;;;;;;2.08;1.33;;;25.10;56.20;;;;;;4117151;28;20158;-59
2022/05/26 01:18:25;;;;;;;1.80;1.23;;;24.90;56.30;;;;;;4111159;28;20065;-63
2022/05/26 01:20:38;;;;;;;1.88;1.20;;;24.80;56.70;;;;;;4111624;28;20069;-60
2022/05/26 01:22:58;;;;;;;2.03;1.00;;;24.70;56.90;;;;;;4111128;28;20543;-63
2022/05/26 01:25:06;;;;;;;2.67;0.85;;;24.60;57.20;;;;;;4112271;28;20057;-58
2022/05/26 01:27:27;;;;;;;4.65;1.33;;;24.60;58.10;;;;;;4111255;28;20202;-59
2022/05/26 01:29:42;;;;;;;1.55;1.10;;;24.50;57.60;;;;;;4114891;28;20059;-63
2022/05/26 01:31:56;;;;;;;2.72;1.23;;;24.40;57.90;;;;;;4117088;28;21170;-63
2022/05/26 01:34:25;;;;;;;2.15;1.15;;;24.30;58.00;;;;;;4117835;28;20493;-62
2022/05/26 01:37:09;;;;;;;1.10;1.00;;;24.20;58.30;;;;;;4111520;28;20603;-59
2022/05/26 01:39:41;;;;;;;1.75;0.70;;;24.20;58.50;;;;;;4094538;28;20496;-60
2022/05/26 01:42:11;;;;;;;2.65;0.90;;;24.00;58.80;;;;;;4117848;28;20701;-61
2022/05/26 01:44:13;;;;;;;1.30;1.10;;;24.00;59.00;;;;;;4111618;28;20061;-62
2022/05/26 01:46:39;;;;;;;1.20;0.90;;;23.90;59.00;;;;;;4112635;28;20050;-61
2022/05/26 01:49:02;;;;;;;1.08;0.73;;;23.80;59.20;;;;;;4108874;28;21489;-63
2022/05/26 01:51:23;;;;;;;1.63;0.93;;;23.80;59.30;;;;;;4119136;28;20111;-61
2022/05/26 01:53:58;;;;;;;1.15;0.85;;;23.70;59.50;;;;;;4109211;28;20706;-62
2022/05/26 01:56:25;;;;;;;1.20;0.80;;;23.70;59.80;;;;;;4119297;28;20049;-61
2022/05/26 01:58:33;;;;;;;1.27;1.00;;;23.60;59.90;;;;;;4111063;28;20053;-60
2022/05/26 02:00:37;;;;;;;1.05;0.80;;;23.60;60.20;;;;;;4111379;28;20099;-60
2022/05/26 02:03:10;;;;;;;1.13;0.90;;;23.50;60.40;;;;;;4118540;28;20641;-59
2022/05/26 02:05:18;;;;;;;1.35;0.95;;;23.40;60.40;;;;;;4110773;28;20392;-61
2022/05/26 02:07:25;;;;;;;2.00;0.98;;;23.40;60.60;;;;;;4110052;28;20137;-62
2022/05/26 02:09:34;;;;;;;1.13;0.98;;;23.40;60.80;;;;;;4109685;28;20513;-60
2022/05/26 02:11:55;;;;;;;2.58;0.98;;;23.30;60.90;;;;;;4110284;28;20187;-61
2022/05/26 02:14:12;;;;;;;0.80;0.60;;;23.30;61.10;;;;;;4108830;28;20665;-61
2022/05/26 02:16:51;;;;;;;1.63;0.90;;;23.30;61.40;;;;;;4110641;28;20115;-65
2022/05/26 02:19:17;;;;;;;4.05;1.15;;;23.20;61.30;;;;;;4110966;28;20414;-60
2022/05/26 02:21:43;;;;;;;1.42;1.05;;;23.20;61.10;;;;;;4119140;28;20060;-59
2022/05/26 02:24:01;;;;;;;2.10;1.40;;;23.10;61.30;;;;;;4106957;28;20625;-61
2022/05/26 02:26:04;;;;;;;3.90;1.25;;;23.00;61.90;;;;;;4108948;28;20053;-59
2022/05/26 02:28:06;;;;;;;5.75;1.63;;;23.00;61.90;;;;;;4110132;28;20053;-59
2022/05/26 02:30:12;;;;;;;1.73;1.00;;;23.00;62.50;;;;;;4117021;28;20054;-57
2022/05/26 02:32:15;;;;;;;2.58;1.20;;;23.00;62.70;;;;;;4108199;28;20447;-59
2022/05/26 02:34:21;;;;;;;2.08;1.30;;;22.90;62.60;;;;;;4108255;28;20060;-58
2022/05/26 02:36:27;;;;;;;2.88;1.25;;;22.90;62.70;;;;;;4110513;28;20045;-56
2022/05/26 02:38:29;;;;;;;2.30;1.20;;;22.90;62.80;;;;;;4117414;28;20561;-59
2022/05/26 02:40:31;;;;;;;3.50;1.10;;;22.90;62.90;;;;;;4111319;28;20546;-54
2022/05/26 02:42:35;;;;;;;1.80;1.00;;;22.90;62.90;;;;;;4108043;28;20361;-60
2022/05/26 02:44:38;;;;;;;1.40;1.00;;;22.80;62.90;;;;;;4110141;28;20359;-60
2022/05/26 02:46:58;;;;;;;;;;;22.80;63.00;;;;;;4116935;28;20527;-58
2022/05/26 02:49:13;;;;;;;2.70;1.33;;;22.70;63.00;;;;;;4126330;28;19966;-58
2022/05/26 02:51:27;;;;;;;3.03;1.00;;;22.80;63.20;;;;;;4107291;28;20511;-58
2022/05/26 02:53:40;;;;;;;1.40;0.88;;;22.70;63.40;;;;;;4108771;28;20104;-57
2022/05/26 02:56:20;;;;;;;10.65;1.10;;;22.70;63.50;;;;;;4109220;28;20563;-58
2022/05/26 02:58:33;;;;;;;3.38;1.10;;;22.70;63.60;;;;;;4105963;28;20766;-58
2022/05/26 03:00:44;;;;;;;1.10;0.90;;;22.70;63.70;;;;;;4109712;28;20111;-58
2022/05/26 03:02:53;;;;;;;2.63;0.98;;;22.70;64.50;;;;;;4112365;28;20053;-58
2022/05/26 03:05:28;;;;;;;2.40;1.00;;;22.70;63.90;;;;;;4115959;28;20084;-60
2022/05/26 03:07:33;;;;;;;1.48;1.10;;;22.60;63.80;;;;;;4105509;28;20706;-61
2022/05/26 03:09:37;;;;;;;1.40;0.93;;;22.60;63.90;;;;;;4110682;28;20161;-59
2022/05/26 03:11:47;;;;;;;1.90;0.85;;;22.60;63.90;;;;;;4108018;28;20429;-56
2022/05/26 03:13:50;;;;;;;2.67;0.90;;;22.60;64.00;;;;;;4114081;28;20072;-60
2022/05/26 03:15:54;;;;;;;1.08;0.90;;;22.60;64.00;;;;;;4133147;28;20231;-60
2022/05/26 03:17:56;;;;;;;1.10;0.70;;;22.70;64.00;;;;;;4111596;28;20089;-55
2022/05/26 03:19:58;;;;;;;1.00;0.90;;;22.70;64.10;;;;;;4112991;28;20556;-60
2022/05/26 03:22:00;;;;;;;1.35;0.77;;;22.60;64.00;;;;;;4120731;28;20099;-59
2022/05/26 03:24:02;;;;;;;2.88;0.90;;;22.60;64.00;;;;;;4124502;28;20064;-52
2022/05/26 03:26:06;;;;;;;1.40;1.05;;;22.70;64.40;;;;;;4119484;28;20705;-58
2022/05/26 03:32:10;;;;;;;2.25;1.20;;;22.70;63.80;;;;;;4148350;28;20059;-59
2022/05/26 03:41:15;;;;;;;1.50;0.70;;;22.70;63.60;;;;;;4119508;28;20121;-59
2022/05/26 03:43:18;;;;;;;2.03;0.80;;;22.70;63.50;;;;;;4115672;28;20108;-59
2022/05/26 03:45:23;;;;;;;1.33;0.88;;;22.70;63.50;;;;;;4111553;28;20544;-59
2022/05/26 03:47:26;;;;;;;1.00;0.80;;;22.80;63.40;;;;;;4111343;28;20084;-60
2022/05/26 03:49:28;;;;;;;1.17;0.80;;;22.80;63.30;;;;;;4120498;28;20046;-58
2022/05/26 03:51:30;;;;;;;1.00;0.70;;;22.80;63.40;;;;;;4111901;28;20061;-59
2022/05/26 03:53:35;;;;;;;1.13;0.90;;;22.80;63.20;;;;;;4112824;28;20055;-59
2022/05/26 03:55:38;;;;;;;1.13;0.88;;;22.80;63.20;;;;;;4118160;28;20383;-58
2022/05/26 03:57:40;;;;;;;1.00;0.63;;;22.80;63.30;;;;;;4117490;28;22135;-58
2022/05/26 03:59:42;;;;;;;0.77;0.70;;;22.80;63.30;;;;;;4111657;28;20056;-59
2022/05/26 04:01:45;;;;;;;3.47;0.70;;;22.80;63.40;;;;;;4112880;28;20068;-60
2022/05/26 04:03:48;;;;;;;1.30;0.70;;;22.80;63.60;;;;;;4120150;28;20637;-58
2022/05/26 04:05:50;;;;;;;0.97;0.60;;;22.80;63.80;;;;;;4112617;28;21025;-60
2022/05/26 04:07:52;;;;;;;2.67;0.77;;;22.90;63.70;;;;;;4113109;28;20506;-56
2022/05/26 04:09:54;;;;;;;1.77;0.80;;;22.90;64.40;;;;;;4119559;28;20056;-58
2022/05/26 04:11:56;;;;;;;1.25;0.70;;;23.00;63.90;;;;;;4115293;28;20322;-56
2022/05/26 04:13:58;;;;;;;0.85;0.60;;;23.00;63.70;;;;;;4110699;28;20175;-56
2022/05/26 04:16:01;;;;;;;0.60;0.60;;;23.10;63.80;;;;;;4118176;28;20073;-59
2022/05/26 04:18:03;;;;;;;1.30;0.90;;;23.20;63.80;;;;;;4117210;28;20820;-59
2022/05/26 04:20:07;;;;;;;1.10;0.55;;;23.20;63.80;;;;;;4110402;28;20064;-59
2022/05/26 04:22:15;;;;;;;1.38;0.70;;;23.20;63.80;;;;;;4112042;28;20057;-60
2022/05/26 04:24:17;;;;;;;0.70;0.70;;;23.20;63.90;;;;;;4109805;28;20045;-53
2022/05/26 04:26:20;;;;;;;2.97;1.00;;;23.30;63.90;;;;;;4118948;28;20049;-58
2022/05/26 04:28:22;;;;;;;4.65;0.90;;;23.30;64.00;;;;;;4109768;28;20076;-59
2022/05/26 04:30:25;;;;;;;3.20;0.98;;;23.30;63.90;;;;;;4110681;28;20045;-55
2022/05/26 04:32:27;;;;;;;4.55;0.93;;;23.40;63.90;;;;;;4117583;28;20077;-56
2022/05/26 04:34:29;;;;;;;3.13;0.80;;;23.40;63.90;;;;;;4108097;28;21777;-58
2022/05/26 04:36:31;;;;;;;2.63;0.77;;;23.50;63.80;;;;;;4109886;28;20049;-59
2022/05/26 04:38:34;;;;;;;0.65;0.60;;;23.50;63.80;;;;;;4115741;28;20046;-59
2022/05/26 04:40:36;;;;;;;0.90;0.52;;;23.40;63.90;;;;;;4114332;28;20670;-58
2022/05/26 04:42:39;;;;;;;3.10;0.93;;;23.40;64.00;;;;;;4108937;28;20081;-58
2022/05/26 04:44:43;;;;;;;1.13;0.75;;;23.40;64.20;;;;;;4110969;28;20443;-59
2022/05/26 04:46:46;;;;;;;1.15;0.70;;;23.40;64.20;;;;;;4115474;28;20575;-58
2022/05/26 04:48:48;;;;;;;1.98;0.82;;;23.40;64.20;;;;;;4109281;28;20709;-60
2022/05/26 04:50:51;;;;;;;1.90;0.60;;;23.30;64.30;;;;;;4110567;28;20064;-58
2022/05/26 04:52:52;;;;;;;;;;;23.30;64.40;;;;;;4115134;28;20615;-57
2022/05/26 04:54:54;;;;;;;1.75;0.82;;;23.30;64.60;;;;;;4114054;28;21323;-60
2022/05/26 04:57:00;;;;;;;0.80;0.73;;;23.30;64.70;;;;;;4109978;28;20532;-54
2022/05/26 04:59:03;;;;;;;4.55;0.82;;;23.20;64.70;;;;;;4110046;28;20233;-59
2022/05/26 05:01:15;;;;;;;6.22;1.13;;;23.20;65.20;;;;;;4117739;28;20064;-60
2022/05/26 05:03:18;;;;;;;3.47;0.90;;;23.20;64.80;;;;;;4116559;28;20061;-60
2022/05/26 05:05:20;;;;;;;1.05;0.80;;;23.30;64.80;;;;;;4111332;28;21192;-59
2022/05/26 05:07:22;;;;;;;2.97;0.77;;;23.30;64.60;;;;;;4110574;28;20096;-60
2022/05/26 05:09:25;;;;;;;1.27;0.88;;;23.40;64.60;;;;;;4115277;28;20105;-60
2022/05/26 05:11:28;;;;;;;2.85;0.93;;;23.40;64.50;;;;;;4113835;28;20210;-60
2022/05/26 05:13:32;;;;;;;1.65;0.52;;;23.50;64.40;;;;;;4109496;28;20156;-57
2022/05/26 05:15:46;;;;;;;0.47;0.47;;;23.60;64.20;;;;;;4109829;28;20080;-60
2022/05/26 05:17:48;;;;;;;1.27;0.90;;;23.60;64.00;;;;;;4109796;28;20211;-62
2022/05/26 05:19:51;;;;;;;1.30;0.45;;;23.60;64.10;;;;;;4117331;28;20523;-62
2022/05/26 05:22:23;;;;;;;0.52;0.52;;;23.60;64.30;;;;;;4112571;28;20041;-60
2022/05/26 05:25:02;;;;;;;1.17;0.60;;;23.50;64.40;;;;;;4108831;28;20049;-57
2022/05/26 05:27:10;;;;;;;2.45;0.80;;;23.60;64.50;;;;;;4112442;28;20552;-59
2022/05/26 05:29:15;;;;;;;1.40;0.80;;;23.60;64.60;;;;;;4114720;28;20083;-50
2022/05/26 05:31:38;;;;;;;1.20;0.90;;;23.60;64.20;;;;;;4113602;28;20871;-55
2022/05/26 05:33:49;;;;;;;3.85;1.00;;;23.60;64.50;;;;;;4111009;28;20340;-55
2022/05/26 05:36:14;;;;;;;0.70;0.65;;;23.60;64.60;;;;;;4114164;28;20199;-55
2022/05/26 05:38:17;;;;;;;3.13;1.15;;;23.60;64.80;;;;;;4105919;28;20049;-55
2022/05/26 05:40:19;;;;;;;0.82;0.55;;;23.60;64.40;;;;;;4106711;28;20045;-59
2022/05/26 05:42:23;;;;;;;0.88;0.60;;;23.60;64.30;;;;;;4113929;28;20538;-59
2022/05/26 05:44:26;;;;;;;1.98;0.60;;;23.60;64.30;;;;;;4101559;28;20056;-59
2022/05/26 05:46:34;;;;;;;0.70;0.60;;;23.60;64.40;;;;;;4101607;28;20517;-54
2022/05/26 05:48:36;;;;;;;2.58;0.70;;;23.60;64.40;;;;;;4099260;28;20570;-60
2022/05/26 05:50:38;;;;;;;0.90;0.90;;;23.60;64.60;;;;;;4108266;28;20172;-58
2022/05/26 05:52:40;;;;;;;1.08;0.80;;;23.60;64.60;;;;;;4099826;28;20484;-59
2022/05/26 05:54:43;;;;;;;1.85;0.90;;;23.60;64.80;;;;;;4101406;28;20050;-58
2022/05/26 05:56:45;;;;;;;1.92;0.77;;;23.60;64.90;;;;;;4111199;28;20781;-53
2022/05/26 05:58:47;;;;;;;3.30;0.63;;;23.50;65.00;;;;;;4105668;28;20112;-60
2022/05/26 06:00:49;;;;;;;0.80;0.70;;;23.50;65.50;;;;;;4102451;28;20053;-58
2022/05/26 06:02:52;;;;;;;1.77;0.80;;;23.50;65.10;;;;;;4107421;28;20525;-59
2022/05/26 06:04:54;;;;;;;1.42;0.77;;;23.50;65.20;;;;;;4108536;28;20174;-60
2022/05/26 06:06:58;;;;;;;1.63;0.80;;;23.50;65.30;;;;;;4105489;28;20500;-59
2022/05/26 06:09:00;;;;;;;1.27;0.80;;;23.50;65.40;;;;;;4103175;28;20069;-60
2022/05/26 06:11:02;;;;;;;2.35;0.63;;;23.50;65.40;;;;;;4110657;28;20188;-54
2022/05/26 06:13:05;;;;;;;0.50;0.50;;;23.50;65.40;;;;;;4104205;28;20333;-59
2022/05/26 06:15:13;;;;;;;1.05;0.60;;;23.50;65.30;;;;;;4136838;28;20321;-58
2022/05/26 06:17:16;;;;;;;1.20;0.90;;;23.40;65.40;;;;;;4103651;28;20647;-59
2022/05/26 06:19:19;;;;;;;3.83;1.30;;;23.40;65.40;;;;;;4111718;28;20923;-58
2022/05/26 06:21:21;;;;;;;0.60;0.60;;;23.40;65.50;;;;;;4104004;28;20484;-59
2022/05/26 06:23:29;;;;;;;0.68;0.50;;;23.50;65.60;;;;;;4102249;28;20055;-57
2022/05/26 06:25:31;;;;;;;1.55;0.60;;;23.50;65.40;;;;;;4103715;28;20152;-59
2022/05/26 06:29:56;;;;;;;6.00;0.90;;;23.60;65.30;;;;;;4101370;28;20112;-57
2022/05/26 06:39:04;;;;;;;0.70;0.50;;;23.60;65.20;;;;;;4110199;28;21588;-58
2022/05/26 06:43:36;;;;;;;1.30;0.70;;;23.40;65.60;;;;;;4110480;28;20216;-58
2022/05/26 06:45:39;;;;;;;1.10;0.73;;;23.40;65.90;;;;;;4107850;28;20359;-58
2022/05/26 06:47:42;;;;;;;0.55;0.55;;;23.30;66.00;;;;;;4086103;28;20461;-60
2022/05/26 06:49:45;;;;;;;1.63;0.55;;;23.30;66.20;;;;;;4103281;28;20055;-61
2022/05/26 06:51:50;;;;;;;2.85;0.68;;;23.30;66.30;;;;;;4127701;28;20068;-58
2022/05/26 06:53:52;;;;;;;1.60;0.50;;;23.30;66.40;;;;;;4110159;28;20127;-57
2022/05/26 06:55:54;;;;;;;0.40;0.40;;;23.20;66.50;;;;;;4105468;28;20057;-60
2022/05/26 06:57:56;;;;;;;0.88;0.77;;;23.20;66.50;;;;;;4105784;28;20053;-55
2022/05/26 07:00:00;;;;;;;1.25;0.80;;;23.20;66.70;;;;;;4111062;28;20304;-59
2022/05/26 07:02:03;;;;;;;2.58;0.60;;;23.20;66.70;;;;;;4105496;28;20057;-59
2022/05/26 07:04:05;;;;;;;1.35;0.73;;;23.20;66.80;;;;;;4108066;28;20409;-60
2022/05/26 07:06:20;;;;;;;2.05;0.90;;;23.10;66.80;;;;;;4115801;28;20053;-61
2022/05/26 07:08:22;;;;;;;1.88;0.68;;;23.10;66.80;;;;;;4113105;28;20049;-60
2022/05/26 07:10:25;;;;;;;6.40;1.00;;;23.10;67.00;;;;;;4113934;28;20068;-59
2022/05/26 07:12:27;;;;;;;1.93;0.80;;;23.10;66.90;;;;;;4109887;28;20049;-62
2022/05/26 07:14:29;;;;;;;1.98;0.63;;;23.10;67.60;;;;;;4104528;28;20064;-57
2022/05/26 07:16:31;;;;;;;2.45;0.77;;;23.10;67.10;;;;;;4108552;28;20124;-60
2022/05/26 07:18:33;;;;;;;0.30;0.30;;;23.00;67.60;;;;;;4101947;28;20049;-60
2022/05/26 07:20:37;;;;;;;1.23;0.83;;;23.00;67.10;;;;;;4101322;28;20386;-56
2022/05/26 07:22:39;;;;;;;1.13;0.80;;;23.00;67.20;;;;;;4108077;28;20103;-56
2022/05/26 07:24:42;;;;;;;1.00;0.70;;;23.00;67.30;;;;;;4104682;28;20063;-61
2022/05/26 07:26:45;;;;;;;1.17;0.82;;;23.00;67.30;;;;;;4103229;28;20127;-60
2022/05/26 07:28:51;;;;;;;0.75;0.60;;;23.00;67.30;;;;;;4105850;28;20487;-59
2022/05/26 07:30:53;;;;;;;1.95;0.80;;;23.00;67.50;;;;;;4113372;28;20489;-61
2022/05/26 07:32:55;;;;;;;1.80;0.93;;;23.00;67.50;;;;;;4106250;28;21774;-59
2022/05/26 07:34:57;;;;;;;0.70;0.70;;;22.90;68.00;;;;;;4106668;28;20460;-59
2022/05/26 07:42:59;;;;;;;1.45;0.90;;;22.90;67.30;;;;;;4146439;28;20587;-63
2022/05/26 07:48:21;;;;;;;2.03;0.80;;;22.80;67.20;;;;;;4106730;28;20823;-62
2022/05/26 07:50:23;;;;;;;1.48;1.05;;;22.80;67.20;;;;;;4109924;28;20060;-63
2022/05/26 07:52:25;;;;;;;1.42;0.93;;;22.80;67.20;;;;;;4113817;28;20070;-63
2022/05/26 07:54:27;;;;;;;1.15;0.80;;;22.70;67.20;;;;;;4113140;28;20100;-66
2022/05/26 07:56:34;;;;;;;1.42;0.70;;;22.70;67.20;;;;;;4108114;28;20119;-57
2022/05/26 07:58:36;;;;;;;3.90;1.20;;;22.70;67.60;;;;;;4099624;28;20053;-58
2022/05/26 08:00:39;;;;;;;3.13;1.10;;;22.70;67.30;;;;;;4110269;28;20057;-56
2022/05/26 08:02:41;;;;;;;1.42;0.70;;;22.70;67.60;;;;;;4106315;28;20053;-58
2022/05/26 08:04:43;;;;;;;4.80;1.00;;;22.70;67.70;;;;;;4105797;28;20602;-52
2022/05/26 08:06:47;;;;;;;2.25;1.17;;;22.60;67.80;;;;;;4113745;28;20053;-62
2022/05/26 08:08:49;;;;;;;2.70;0.80;;;22.60;68.00;;;;;;4116158;28;20057;-62
2022/05/26 08:10:52;;;;;;;1.60;1.03;;;22.70;69.00;;;;;;4110990;28;20045;-59
2022/05/26 08:12:54;;;;;;;4.47;1.20;;;22.70;68.50;;;;;;4107576;28;20049;-63
2022/05/26 08:14:56;;;;;;;1.58;0.80;;;22.70;68.60;;;;;;4114723;28;20045;-63
2022/05/26 08:16:58;;;;;;;1.65;1.08;;;22.70;68.60;;;;;;4107580;28;20595;-62
2022/05/26 08:19:01;;;;;;;1.73;1.02;;;22.70;68.70;;;;;;4108200;28;20557;-63
2022/05/26 08:21:16;;;;;;;1.75;1.00;;;22.70;68.70;;;;;;4114259;28;20057;-61
2022/05/26 08:23:22;;;;;;;1.35;1.00;;;22.70;68.80;;;;;;4108238;28;20916;-65
2022/05/26 08:25:26;;;;;;;3.88;1.10;;;22.70;68.90;;;;;;4114395;28;20045;-63
2022/05/26 08:27:28;;;;;;;1.23;1.10;;;22.60;68.90;;;;;;4109831;28;20746;-63
2022/05/26 08:29:30;;;;;;;3.83;1.08;;;22.70;68.90;;;;;;4106413;28;20049;-61
2022/05/26 08:31:32;;;;;;;3.15;1.40;;;22.60;68.90;;;;;;4109801;28;20165;-66
2022/05/26 08:33:34;;;;;;;1.85;1.35;;;22.70;69.00;;;;;;4112730;28;20045;-65
2022/05/26 08:35:36;;;;;;;2.45;1.30;;;22.60;69.00;;;;;;4107417;28;20655;-63
2022/05/26 08:37:39;;;;;;;1.23;1.02;;;22.70;69.10;;;;;;4106798;28;20491;-65
2022/05/26 08:39:41;;;;;;;3.00;1.30;;;22.60;69.10;;;;;;4113232;28;20281;-61
2022/05/26 08:41:47;;;;;;;2.65;1.25;;;22.60;69.10;;;;;;4106635;28;20057;-62
2022/05/26 08:44:00;;;;;;;4.25;1.20;;;22.60;69.00;;;;;;4105250;28;20056;-63
2022/05/26 08:46:06;;;;;;;;;;;22.60;69.00;;;;;;4107724;28;20447;-65
2022/05/26 08:48:11;;;;;;;2.70;1.25;;;22.60;69.00;;;;;;4105731;28;20376;-64
2022/05/26 08:50:40;;;;;;;3.83;1.23;;;22.60;69.20;;;;;;4112622;28;20763;-65
2022/05/26 08:53:09;;;;;;;1.38;1.20;;;22.60;69.30;;;;;;4107269;28;20156;-64
2022/05/26 08:55:21;;;;;;;2.28;1.30;;;22.60;69.40;;;;;;4112881;28;20057;-66
2022/05/26 08:57:39;;;;;;;2.03;1.00;;;22.60;69.30;;;;;;4113710;28;20091;-70
2022/05/26 08:59:44;;;;;;;2.13;1.25;;;22.60;69.30;;;;;;4107659;28;20060;-60
2022/05/26 09:01:46;;;;;;;3.30;1.30;;;22.60;69.40;;;;;;4116208;28;20488;-67
2022/05/26 09:03:48;;;;;;;3.87;1.43;;;22.60;69.40;;;;;;4107730;28;20049;-67
2022/05/26 09:06:12;;;;;;;1.92;1.30;;;22.60;69.40;;;;;;4104139;28;20072;-64
2022/05/26 09:13:08;;;;;;;1.65;1.10;;;22.60;69.60;;;;;;4106378;28;20836;-65
2022/05/26 09:15:10;;;;;;;4.47;1.50;;;22.60;69.60;;;;;;4103732;28;20049;-65
2022/05/26 09:17:14;;;;;;;3.43;1.67;;;22.50;69.50;;;;;;4112491;28;20512;-64
2022/05/26 09:19:22;;;;;;;1.90;1.27;;;22.60;69.60;;;;;;4108736;28;20958;-61
2022/05/26 09:21:31;;;;;;;2.83;1.23;;;22.50;69.50;;;;;;4107397;28;20120;-64
2022/05/26 09:23:33;;;;;;;5.78;2.22;;;22.50;69.50;;;;;;4108243;28;20181;-60
2022/05/26 09:25:49;;;;;;;3.33;2.38;;;22.50;68.60;;;;;;4109217;28;20055;-60
2022/05/26 09:27:52;;;;;;;4.75;2.88;;;22.50;68.30;;;;;;4110173;28;20054;-61
2022/05/26 09:29:55;;;;;;;4.57;3.00;;;22.40;68.10;;;;;;4116280;28;20107;-59
2022/05/26 09:31:59;;;;;;;4.78;3.30;;;22.50;68.10;;;;;;4117275;28;20124;-60
2022/05/26 09:34:32;;;;;;;4.70;3.08;;;22.50;68.00;;;;;;4109586;28;20521;-60
2022/05/26 09:36:39;;;;;;;4.35;2.83;;;22.40;67.90;;;;;;4108213;28;20284;-65
2022/05/26 09:38:43;;;;;;;4.82;3.03;;;22.40;68.10;;;;;;4111533;28;20051;-63
2022/05/26 09:40:48;;;;;;;6.07;2.78;;;22.30;68.30;;;;;;4114754;28;20395;-62
2022/05/26 09:42:58;;;;;;;5.43;2.70;;;22.30;68.60;;;;;;4107916;28;20224;-62
2022/05/26 09:45:06;;;;;;;3.63;2.42;;;22.30;68.70;;;;;;4109552;28;20049;-63
2022/05/26 09:47:32;;;;;;;6.25;2.38;;;22.30;68.90;;;;;;4124734;28;20049;-62
2022/05/26 09:49:41;;;;;;;4.03;2.40;;;22.30;69.00;;;;;;4117456;28;20443;-61
2022/05/26 09:51:46;;;;;;;4.38;2.15;;;22.30;69.10;;;;;;4110984;28;21220;-60
2022/05/26 09:53:51;;;;;;;3.30;2.15;;;22.30;69.30;;;;;;4110733;28;20148;-59
2022/05/26 09:55:55;;;;;;;2.63;2.05;;;22.30;69.40;;;;;;4109905;28;20053;-62
2022/05/26 09:58:05;;;;;;;3.10;2.13;;;22.30;69.50;;;;;;4115912;28;20104;-66
2022/05/26 10:00:35;;;;;;;3.00;1.85;;;22.30;69.60;;;;;;4116800;28;20092;-63
2022/05/26 10:02:40;;;;;;;2.47;1.60;;;22.30;70.30;;;;;;4105986;28;20041;-64
2022/05/26 10:04:56;;;;;;;3.08;1.90;;;22.30;69.70;;;;;;4108418;28;20454;-63
2022/05/26 10:07:04;;;;;;;2.55;1.80;;;22.30;69.80;;;;;;4111876;28;20045;-62
2022/05/26 10:09:12;;;;;;;2.70;1.83;;;22.30;69.90;;;;;;4111600;28;20049;-66
2022/05/26 10:11:47;;;;;;;3.63;1.65;;;22.30;69.80;;;;;;4106581;28;20474;-63
2022/05/26 10:14:06;;;;;;;;;;;22.30;69.90;;;;;;4117138;28;20053;-67
2022/05/26 10:16:21;;;;;;;4.15;1.92;;;22.30;69.90;;;;;;4112507;28;20402;-64
2022/05/26 10:18:38;;;;;;;3.28;1.60;;;22.30;69.90;;;;;;4111375;28;20049;-62
2022/05/26 10:20:58;;;;;;;2.95;1.40;;;22.30;69.80;;;;;;4110984;28;20083;-63
2022/05/26 10:23:00;;;;;;;2.03;1.50;;;22.30;69.80;;;;;;4113300;28;20555;-62
2022/05/26 10:25:20;;;;;;;4.32;1.83;;;22.30;69.80;;;;;;4111268;28;20057;-64
2022/05/26 10:27:34;;;;;;;2.13;1.50;;;22.30;69.70;;;;;;4110392;28;20287;-65
2022/05/26 10:29:41;;;;;;;2.92;1.67;;;22.30;69.80;;;;;;4111178;28;20416;-63
2022/05/26 10:31:58;;;;;;;3.00;1.85;;;22.30;69.80;;;;;;4112362;28;20491;-68
2022/05/26 10:34:23;;;;;;;4.68;1.80;;;22.30;69.80;;;;;;4110367;28;20543;-62
2022/05/26 10:36:56;;;;;;;2.75;1.63;;;22.30;69.80;;;;;;4110753;28;20053;-61
2022/05/26 10:39:20;;;;;;;2.75;1.80;;;22.30;69.90;;;;;;4109442;28;20411;-62
2022/05/26 10:41:35;;;;;;;3.22;1.60;;;22.30;69.90;;;;;;4118514;28;20568;-65
2022/05/26 10:44:03;;;;;;;1.90;1.60;;;22.30;70.00;;;;;;4118642;28;20053;-60
2022/05/26 10:46:07;;;;;;;2.42;1.80;;;22.30;69.90;;;;;;4111280;28;20053;-58
2022/05/26 10:48:31;;;;;;;2.60;1.92;;;22.30;69.70;;;;;;4109404;28;20411;-59
2022/05/26 10:50:58;;;;;;;2.83;1.77;;;22.30;69.70;;;;;;4110126;28;20057;-62
2022/05/26 10:53:26;;;;;;;2.53;1.70;;;22.30;69.80;;;;;;4117003;28;20053;-60
2022/05/26 10:55:54;;;;;;;2.10;1.90;;;22.30;69.70;;;;;;4109021;28;20819;-58
2022/05/26 10:58:05;;;;;;;3.80;1.90;;;22.20;69.70;;;;;;4097363;28;20049;-61
2022/05/26 11:00:11;;;;;;;3.97;2.08;;;22.30;69.90;;;;;;4119196;28;20057;-61
2022/05/26 11:02:19;;;;;;;2.55;1.77;;;22.20;69.70;;;;;;4114191;28;20045;-61
2022/05/26 11:04:43;;;;;;;2.78;1.90;;;22.30;69.80;;;;;;4110703;28;20143;-60
2022/05/26 11:06:47;;;;;;;3.17;1.88;;;22.20;69.70;;;;;;4117891;28;20173;-59
2022/05/26 11:09:11;;;;;;;3.63;1.70;;;22.30;69.90;;;;;;4112349;28;20574;-58
2022/05/26 11:11:28;;;;;;;2.78;1.80;;;22.20;69.80;;;;;;4114845;28;21144;-62
2022/05/26 11:13:42;;;;;;;3.00;1.90;;;22.20;69.80;;;;;;4111119;28;20532;-61
2022/05/26 11:18:38;;;;;;;2.53;1.63;;;22.20;69.70;;;;;;4111598;28;20194;-62
2022/05/26 11:20:45;;;;;;;2.78;2.00;;;22.20;69.70;;;;;;4110868;28;20330;-60
2022/05/26 11:22:49;;;;;;;2.35;1.50;;;22.20;70.10;;;;;;4114968;28;20053;-59
2022/05/26 11:24:53;;;;;;;3.45;1.90;;;22.20;69.70;;;;;;4117561;28;20064;-60
2022/05/26 11:27:06;;;;;;;2.90;1.70;;;22.20;69.70;;;;;;4110245;28;20103;-61
2022/05/26 11:29:25;;;;;;;3.00;1.90;;;22.20;69.70;;;;;;4112005;28;21214;-59
2022/05/26 11:36:42;;;;;;;3.47;1.80;;;22.20;69.60;;;;;;4111492;28;20046;-61
2022/05/26 11:38:48;;;;;;;2.95;1.65;;;22.20;69.60;;;;;;4115707;28;20087;-60
2022/05/26 11:40:59;;;;;;;4.32;1.75;;;22.10;69.60;;;;;;4122271;28;20053;-61
2022/05/26 11:43:02;;;;;;;3.03;1.73;;;22.10;70.10;;;;;;4133609;28;20703;-63
2022/05/26 11:45:16;;;;;;;3.13;1.60;;;22.10;69.50;;;;;;4114121;28;20057;-59
2022/05/26 11:47:55;;;;;;;1.60;1.35;;;22.10;69.50;;;;;;4113082;28;20738;-62
2022/05/26 11:49:57;;;;;;;2.92;1.73;;;22.10;69.50;;;;;;4113562;28;20050;-60
2022/05/26 11:52:01;;;;;;;2.47;1.75;;;22.10;69.60;;;;;;4115100;28;20065;-63
2022/05/26 11:54:03;;;;;;;2.95;1.90;;;22.10;69.60;;;;;;4115819;28;20057;-58